Klik op de webcam foto voor een grotere versieKlik op de webcam foto voor een grotere versie
Of klik hier voor
de webcam video


Weerstation
Wilsele-Leuven:Website of another weatherstation

Weerstation
Wilsele-Putkapel:Website of another weatherstation


Nabijgelegen vliegvelden - METAR rapporten

   
EBBE - Vaartkom-Leuven
Gewijzigd: 07-08-2022 23:55
Helder    Wind: Noorden 13 km/h
Helder
Wind: Wind: Noorden 13 km/h
Temperatuur: 16°C
Dauwpunt: 10°C
Vochtigheid: 68%
Barometer: 1024 hPa
Bewolking: Helder
Zicht: meer dan 10 km
Bewolking: Helder
EBBE 072155Z AUTO 01007KT 9999 NCD 16/10 Q1024 BLU
EBAW - Antwerp
Gewijzigd: 08-08-2022 00:20
   Wind: varieert 4 km/h
Wind: Wind: varieert 4 km/h
Temperatuur: 16°C
Dauwpunt: 10°C
Vochtigheid: 68%
Barometer: 1025 hPa
Zicht: meer dan 10 km
Bewolking: Bewolking
EBAW 072220Z AUTO VRB02KT 9999 // VV/// 16/10 Q1025
EBLG - Liège
Gewijzigd: 08-08-2022 00:20
Helder    Wind: Noorden 6 km/h
Helder
Wind: Wind: Noorden 6 km/h
Temperatuur: 15°C
Dauwpunt: 9°C
Vochtigheid: 68%
Barometer: 1024 hPa
Zicht: meer dan 10 km
Bewolking: Helder
EBLG 072220Z 01003KT CAVOK 15/09 Q1024 NOSIG
EBCV - Mons/Bergen
Gewijzigd: 07-08-2022 23:55
Helder    Wind: NNO 15 km/h
Helder
Wind: Wind: NNO 15 km/h
Temperatuur: 17°C
Dauwpunt: 10°C
Vochtigheid: 64%
Barometer: 1024 hPa
Bewolking: Helder
Zicht: meer dan 10 km
Bewolking: Helder
EBCV 072155Z AUTO 02008KT 9999 NCD 17/10 Q1024 BLU
EHBK - Maastricht
Gewijzigd: 08-08-2022 00:25
Helder    Wind: Noorden 13 km/h
Helder
Wind: Wind: Noorden 13 km/h
Temperatuur: 17°C
Dauwpunt: 9°C
Vochtigheid: 59%
Barometer: 1024 hPa
Bewolking: Helder
Zicht: meer dan 10 km
Bewolking: Helder
EHBK 072225Z AUTO 01007KT 340V040 9999 NCD 17/09 Q1024
ELLX - Luxemburg
Gewijzigd: 08-08-2022 00:20
Helder    Wind: NNO 22 km/h
Helder
Wind: Wind: NNO 22 km/h
Temperatuur: 18°C
Dauwpunt: 6°C
Vochtigheid: 46%
Barometer: 1023 hPa
Zicht: meer dan 10 km
Bewolking: Helder
ELLX 072220Z 03012KT CAVOK 18/06 Q1023 NOSIG
EBOS - Oostende
Gewijzigd: 08-08-2022 00:20
Helder    Wind: ONO 6 km/h
Helder
Wind: Wind: ONO 6 km/h
Temperatuur: 15°C
Dauwpunt: 11°C
Vochtigheid: 77%
Barometer: 1026 hPa
Zicht: meer dan 10 km
Bewolking: Helder
EBOS 072220Z 06003KT CAVOK 15/11 Q1026 NOSIG
  

Script ontwikkeld door  Saratoga-weather.org Aangepast voor de template door  Weerstation Leuven

U vindt ons ook hier:

ambientweather.net/

UK Metoffice

WeatherCloud

European Weather Network

Weather Underground

Bernelux Weather Network

AWEKAS

WeatherlinkIP

Citizen Weather Observer Program (CWOP)

HAMweather, WeatherForYou, PWS Weather

Apparatuur in gebruik:

Weer-station
Davis VUE

Weer-programma
Meteobridge

Weer-computer
Nano-SD

Davis VUE

Meteobridge

Nano-SD